Terminal Aerodrome Forecast
Issued by NWS Charleston, WV

Home | Current Version | Previous Version | Text Only | Print | Product List | Glossary On
Versions: 1 2 3 4 5 6 7 8 9 10 11 12 13 14 15 16 17 18 19 20 21 22 23 24 25
000
FTUS41 KRLX 040904 AAB
TAFBKW
TAF AMD
KBKW 040904Z 0409/0506 00000KT 5SM BR SCT040
      TEMPO 0409/0413 6SM BR
     FM041300 02004KT P6SM SCT025
     FM041600 02004KT P6SM VCTS BKN025CB
     FM041800 36005KT P6SM VCTS BKN035CB
     FM050400 00000KT P6SM BKN035=

USA.gov is the U.S. government's official web portal to all federal, state and local government web resources and services.